Time;durP1;ratioP1;P1;durP2;ratioP2;P2;SDS_P1;SDS_P2;PMS_P1;PMS_P2;Temp;Humidity;BMP_temperature;BMP_pressure;BME280_temperature;BME280_humidity;BME280_pressure;Samples;Min_cycle;Max_cycle;Signal;HPM_P1;HPM_P2
2022/09/18 06:32:36;;;;;;;90.85;60.52;;;;;;;11.51;96.02;98167.74;1873518;74;21914;-60
2022/09/18 06:35:03;;;;;;;8.35;4.80;;;;;;;11.43;96.32;98167.86;1832287;75;20929;-59
2022/09/18 06:37:32;;;;;;;5.87;2.87;;;;;;;11.41;96.31;98167.14;1825620;76;21037;-60
2022/09/18 06:40:00;;;;;;;3.30;2.90;;;;;;;11.43;96.50;98171.78;1830848;76;21579;-61
2022/09/18 06:42:27;;;;;;;2.58;2.08;;;;;;;11.54;96.53;98170.13;1831704;76;21312;-62
2022/09/18 06:44:54;;;;;;;2.93;2.33;;;;;;;11.60;96.50;98172.30;1829726;76;21980;-60
2022/09/18 06:47:20;;;;;;;2.20;1.80;;;;;;;11.65;96.33;98177.53;1826961;76;21315;-61
2022/09/18 06:49:47;;;;;;;2.47;1.90;;;;;;;11.67;96.08;98185.23;1823491;76;21119;-61
2022/09/18 06:52:14;;;;;;;4.12;2.15;;;;;;;11.70;96.11;98179.77;1832665;76;21610;-60
2022/09/18 06:54:40;;;;;;;2.50;2.00;;;;;;;11.74;96.03;98178.60;1820457;76;21296;-61
2022/09/18 06:57:07;;;;;;;2.47;1.83;;;;;;;11.75;95.85;98182.88;1826714;76;20923;-60
2022/09/18 06:59:36;;;;;;;2.47;1.70;;;;;;;11.86;96.25;98181.61;1827124;76;21551;-60
2022/09/18 07:02:03;;;;;;;7.08;1.90;;;;;;;12.00;96.27;98178.41;1826461;76;21381;-61
2022/09/18 07:04:30;;;;;;;2.83;1.90;;;;;;;12.00;96.27;98178.41;1826674;76;20972;-61
2022/09/18 07:06:57;;;;;;;2.25;1.70;;;;;;;12.08;96.11;98176.03;1832935;76;20975;-60
2022/09/18 07:09:24;;;;;;;4.13;2.00;;;;;;;12.15;95.95;98178.50;1829486;76;21067;-60
2022/09/18 07:11:51;;;;;;;3.58;1.30;;;;;;;12.23;96.09;98182.66;1828439;76;20977;-60
2022/09/18 07:14:18;;;;;;;2.17;1.50;;;;;;;12.35;96.12;98169.56;1801916;77;21075;-60
2022/09/18 07:16:44;;;;;;;4.30;1.40;;;;;;;12.44;95.94;98174.09;1830964;76;21074;-60
2022/09/18 07:19:15;;;;;;;2.37;1.70;;;;;;;12.46;95.68;98174.78;1825144;76;20984;-60
2022/09/18 07:21:42;;;;;;;1.87;1.70;;;;;;;12.49;95.59;98178.45;1826485;76;20937;-60
2022/09/18 07:24:09;;;;;;;2.10;1.57;;;;;;;12.52;95.31;98180.86;1822301;76;21009;-60
2022/09/18 07:26:36;;;;;;;2.60;1.57;;;;;;;12.54;95.27;98181.55;1826802;76;21338;-60
2022/09/18 07:29:03;;;;;;;2.85;1.67;;;;;;;12.61;95.53;98184.05;1837538;76;21535;-60
2022/09/18 07:31:30;;;;;;;1.47;1.37;;;;;;;12.73;95.68;98177.81;1826658;76;21054;-60
2022/09/18 07:33:57;;;;;;;2.33;1.50;;;;;;;12.84;95.57;98176.12;1838467;76;21102;-60
2022/09/18 07:36:27;;;;;;;3.22;1.80;;;;;;;12.96;95.35;98181.17;1835131;76;21624;-61
2022/09/18 07:38:54;;;;;;;3.70;1.55;;;;;;;13.10;95.12;98178.73;1836026;76;23209;-61
2022/09/18 07:41:20;;;;;;;2.75;1.62;;;;;;;13.16;95.08;98176.95;1838256;76;21025;-61
2022/09/18 07:43:50;;;;;;;6.15;2.42;;;;;;;13.25;94.89;98174.50;1827258;76;21592;-61
2022/09/18 07:46:17;;;;;;;4.25;1.50;;;;;;;13.29;94.86;98179.89;1825506;76;21009;-61
2022/09/18 07:48:44;;;;;;;5.62;2.00;;;;;;;13.35;95.11;98179.37;1835994;76;21046;-61
2022/09/18 07:51:11;;;;;;;2.20;1.20;;;;;;;13.42;94.99;98181.84;1837766;76;21081;-61
2022/09/18 07:53:38;;;;;;;;;;;;;;;13.51;94.66;98178.45;1829244;76;21021;-61
2022/09/18 07:56:10;;;;;;;2.72;1.37;;;;;;;13.57;94.74;98179.72;1827820;76;20173;-61
2022/09/18 07:58:37;;;;;;;5.42;1.37;;;;;;;13.71;94.96;98179.87;1831850;76;21150;-61
2022/09/18 08:01:06;;;;;;;1.60;1.25;;;;;;;13.83;94.73;98182.75;1827722;76;21609;-61
2022/09/18 08:03:34;;;;;;;4.80;1.20;;;;;;;13.90;94.57;98181.28;1809263;76;21125;-60
2022/09/18 08:06:01;;;;;;;2.80;0.88;;;;;;;13.85;93.18;98184.77;1825542;76;20985;-61
2022/09/18 08:08:28;;;;;;;1.67;1.10;;;;;;;13.62;92.69;98178.38;1826768;76;21582;-61
2022/09/18 08:10:56;;;;;;;2.15;1.10;;;;;;;13.53;93.45;98185.72;1822401;76;21056;-61
2022/09/18 08:13:23;;;;;;;3.27;1.98;;;;;;;13.61;94.06;98184.59;1822599;76;20933;-60
2022/09/18 08:15:50;;;;;;;1.42;1.30;;;;;;;13.68;94.00;98186.69;1827446;76;21034;-61
2022/09/18 08:18:18;;;;;;;1.85;1.45;;;;;;;13.75;93.84;98182.12;1807496;76;21716;-61
2022/09/18 08:20:47;;;;;;;2.83;1.80;;;;;;;13.83;93.77;98188.00;1829732;76;21525;-60
2022/09/18 08:23:14;;;;;;;4.72;3.75;;;;;;;13.98;93.94;98188.02;1829358;76;21029;-60
2022/09/18 08:25:41;;;;;;;7.17;5.65;;;;;;;14.09;93.83;98189.24;1827753;76;21566;-61
2022/09/18 08:28:09;;;;;;;4.62;1.67;;;;;;;14.17;93.30;98195.61;1819556;76;21079;-60
2022/09/18 08:30:36;;;;;;;5.70;3.22;;;;;;;14.23;93.30;98188.54;1831648;76;20968;-60
2022/09/18 08:33:07;;;;;;;7.37;4.17;;;;;;;14.26;93.32;98194.84;1836549;76;21113;-60
2022/09/18 08:35:34;;;;;;;3.92;3.08;;;;;;;14.32;93.22;98196.92;1836143;76;21761;-61
2022/09/18 08:38:01;;;;;;;2.67;2.08;;;;;;;14.51;93.70;98194.36;1798179;75;21036;-61
2022/09/18 08:41:05;;;;;;;5.58;3.70;;;;;;;14.69;93.46;98191.09;1795557;76;21465;-60
2022/09/18 08:44:01;;;;;;;4.00;1.85;;;;;;;14.83;93.37;98195.13;1800060;77;21005;-61
2022/09/18 08:46:53;;;;;;;2.98;1.40;;;;;;;14.97;92.87;98199.49;1792764;78;21568;-60
2022/09/18 08:49:37;;;;;;;3.35;1.75;;;;;;;15.10;92.94;98194.47;1747787;79;21049;-62
2022/09/18 08:52:16;;;;;;;3.00;0.90;;;;;;;15.09;92.16;98196.23;1702120;82;21040;-61
2022/09/18 08:55:07;;;;;;;2.33;1.32;;;;;;;15.08;92.33;98199.02;1705202;82;21215;-60
2022/09/18 08:57:46;;;;;;;2.47;1.10;;;;;;;15.19;92.57;98198.88;1700937;82;21034;-60
2022/09/18 09:00:41;;;;;;;2.58;1.85;;;;;;;15.42;92.43;98200.23;1702170;82;21085;-60
2022/09/18 09:03:50;;;;;;;2.50;1.27;;;;;;;15.57;92.06;98205.06;1695414;82;21053;-61
2022/09/18 09:06:54;;;;;;;2.05;1.02;;;;;;;15.98;92.83;98201.75;1710518;82;21071;-61
2022/09/18 09:09:41;;;;;;;2.35;0.68;;;;;;;16.50;93.15;98196.82;1703354;82;21091;-62
2022/09/18 09:12:16;;;;;;;1.00;0.82;;;;;;;16.74;91.98;98193.11;1705364;82;22412;-60
2022/09/18 09:15:08;;;;;;;1.57;0.80;;;;;;;16.92;91.60;98191.03;1701936;82;21604;-61
2022/09/18 09:18:03;;;;;;;1.25;0.90;;;;;;;16.98;90.92;98193.06;1698888;82;21114;-61
2022/09/18 09:20:57;;;;;;;1.33;0.97;;;;;;;16.97;90.46;98197.98;1706304;82;21588;-61
2022/09/18 09:23:59;;;;;;;3.37;1.37;;;;;;;16.93;90.07;98199.27;1721516;80;21076;-62
2022/09/18 09:26:26;;;;;;;1.45;0.80;;;;;;;16.80;89.79;98194.36;1704527;82;21022;-61
2022/09/18 09:28:59;;;;;;;;;;;;;;;16.73;88.95;98198.05;1736573;80;21826;-62
2022/09/18 09:31:34;;;;;;;1.17;0.70;;;;;;;16.58;88.81;98198.23;1707914;80;21134;-62
2022/09/18 09:34:06;;;;;;;3.60;0.80;;;;;;;16.60;89.61;98198.06;1741319;80;20978;-62
2022/09/18 09:36:36;;;;;;;1.60;0.80;;;;;;;16.68;89.75;98198.98;1743968;80;21065;-62
2022/09/18 09:39:32;;;;;;;4.42;0.80;;;;;;;16.88;89.89;98201.52;1752185;80;20947;-61
2022/09/18 09:42:24;;;;;;;1.40;0.65;;;;;;;17.15;89.97;98197.50;1751176;79;21073;-61
2022/09/18 09:45:11;;;;;;;3.77;0.82;;;;;;;17.71;90.58;98201.24;1763935;80;21665;-62
2022/09/18 09:47:41;;;;;;;;;;;;;;;18.17;89.90;98197.39;1734687;80;21029;-61
2022/09/18 09:50:42;;;;;;;2.52;0.80;;;;;;;18.58;89.40;98199.39;1760402;80;21047;-62
2022/09/18 09:53:12;;;;;;;0.50;0.42;;;;;;;18.77;88.71;98199.97;1757265;80;21171;-62
2022/09/18 09:55:50;;;;;;;2.40;0.60;;;;;;;18.83;87.74;98198.50;1755354;80;21156;-62
2022/09/18 09:58:40;;;;;;;1.02;0.40;;;;;;;18.69;87.44;98199.09;1755262;80;20997;-62
2022/09/18 10:03:47;;;;;;;1.60;0.75;;;;;;;18.76;86.89;98197.48;1840445;76;24080;-61
2022/09/18 10:06:43;;;;;;;3.87;0.62;;;;;;;18.90;87.72;98194.20;1831029;78;21031;-61
2022/09/18 10:09:35;;;;;;;3.27;1.30;;;;;;;19.19;87.23;98199.55;1826228;77;21660;-64
2022/09/18 10:12:25;;;;;;;0.80;0.70;;;;;;;19.19;86.29;98201.69;1833679;76;21636;-61
2022/09/18 10:14:57;;;;;;;2.58;0.70;;;;;;;19.10;84.72;98203.16;1834700;76;20981;-61
2022/09/18 10:17:26;;;;;;;3.05;0.78;;;;;;;18.55;83.30;98213.25;1825852;76;21581;-61
2022/09/18 10:19:53;;;;;;;2.15;0.75;;;;;;;18.27;84.67;98218.42;1830904;76;20953;-61
2022/09/18 10:22:22;;;;;;;2.12;1.07;;;;;;;18.26;85.29;98215.43;1827687;76;21357;-61
2022/09/18 10:25:21;;;;;;;0.90;0.60;;;;;;;18.18;84.82;98214.09;1829253;76;21075;-62
2022/09/18 10:27:48;;;;;;;1.17;0.45;;;;;;;18.13;84.97;98213.73;1829234;76;21559;-62
2022/09/18 10:30:16;;;;;;;1.40;0.50;;;;;;;18.19;84.80;98218.39;1826667;76;21016;-62
2022/09/18 10:32:43;;;;;;;3.17;0.60;;;;;;;18.08;84.28;98209.73;1827627;76;20941;-61
2022/09/18 10:35:31;;;;;;;3.47;0.50;;;;;;;17.96;83.90;98203.08;1829616;78;21871;-62
2022/09/18 10:37:58;;;;;;;0.78;0.50;;;;;;;17.98;84.27;98200.27;1823740;77;21647;-61
2022/09/18 10:40:39;;;;;;;4.03;1.30;;;;;;;18.00;83.82;98209.69;1822748;78;21024;-62
2022/09/18 10:43:20;;;;;;;1.55;0.72;;;;;;;18.14;83.46;98212.73;1825728;78;21006;-61
2022/09/18 10:45:55;;;;;;;3.95;0.72;;;;;;;18.11;83.82;98212.06;1826520;78;21079;-61
2022/09/18 10:48:25;;;;;;;1.98;0.70;;;;;;;18.17;83.67;98215.89;1816533;78;21900;-62
2022/09/18 10:50:59;;;;;;;1.50;0.68;;;;;;;18.27;83.76;98221.07;1829260;77;21162;-61
2022/09/18 10:53:32;;;;;;;2.50;0.80;;;;;;;18.36;83.30;98222.75;1821847;78;20967;-61
2022/09/18 10:56:07;;;;;;;1.22;0.55;;;;;;;18.43;83.38;98213.69;1829412;76;20989;-60
2022/09/18 10:58:34;;;;;;;0.88;0.45;;;;;;;18.52;83.26;98212.25;1828003;76;20986;-61
2022/09/18 11:01:29;;;;;;;1.32;0.65;;;;;;;18.62;82.80;98209.97;1842423;76;22626;-60
2022/09/18 11:04:02;;;;;;;5.03;0.70;;;;;;;18.76;83.01;98206.73;1819567;77;20943;-61
2022/09/18 11:06:34;;;;;;;1.45;0.50;;;;;;;18.86;82.72;98206.10;1816926;77;21876;-61
2022/09/18 11:09:05;;;;;;;0.60;0.30;;;;;;;18.85;81.61;98209.75;1820485;77;20969;-61
2022/09/18 11:11:36;;;;;;;1.30;0.40;;;;;;;18.71;81.49;98205.06;1816899;77;21276;-62
2022/09/18 11:14:07;;;;;;;2.27;0.57;;;;;;;18.69;81.37;98207.03;1818982;77;21557;-61
2022/09/18 11:16:48;;;;;;;1.55;0.40;;;;;;;18.78;81.29;98204.27;1813685;77;20931;-62
2022/09/18 11:19:28;;;;;;;1.87;0.60;;;;;;;18.82;81.32;98211.39;1817869;77;21636;-61
2022/09/18 11:22:01;;;;;;;2.30;0.55;;;;;;;19.01;81.39;98208.94;1782734;78;20950;-61
2022/09/18 11:24:32;;;;;;;1.35;0.62;;;;;;;19.14;80.27;98211.11;1756408;81;20962;-61
2022/09/18 11:27:02;;;;;;;0.90;0.50;;;;;;;19.13;80.57;98210.76;1753651;79;21057;-62
2022/09/18 11:29:38;;;;;;;0.68;0.40;;;;;;;19.12;79.73;98202.00;1722441;81;20989;-61
2022/09/18 11:32:20;;;;;;;;;;;;;;;19.16;80.25;98215.25;1758705;80;21204;-61
2022/09/18 11:34:52;;;;;;;0.62;0.20;;;;;;;19.17;79.46;98210.78;1754283;80;20180;-61
2022/09/18 11:37:39;;;;;;;0.45;0.30;;;;;;;19.32;80.25;98204.33;1753071;79;20960;-61
2022/09/18 11:40:16;;;;;;;1.37;0.40;;;;;;;19.33;79.14;98201.53;1755374;81;21156;-61
2022/09/18 11:42:46;;;;;;;2.30;0.40;;;;;;;19.27;79.27;98195.59;1748532;80;21009;-62
2022/09/18 11:45:46;;;;;;;0.70;0.30;;;;;;;19.13;77.89;98204.15;1750135;81;21123;-62
2022/09/18 11:48:38;;;;;;;0.78;0.40;;;;;;;18.97;78.27;98200.50;1745569;81;23052;-60
2022/09/18 11:51:14;;;;;;;0.30;0.20;;;;;;;18.76;77.75;98204.08;1754583;79;21669;-62
2022/09/18 11:53:45;;;;;;;1.00;0.17;;;;;;;17.74;68.37;98212.81;1749119;80;21625;-60
2022/09/18 11:56:20;;;;;;;0.30;0.30;;;;;;;16.87;71.04;98199.88;1757488;79;20994;-60
2022/09/18 11:59:04;;;;;;;0.57;0.20;;;;;;;16.29;72.10;98204.45;1755168;81;21070;-60
2022/09/18 12:01:45;;;;;;;0.10;0.10;;;;;;;15.87;71.62;98208.84;1739834;80;20973;-61
2022/09/18 12:04:20;;;;;;;0.72;0.20;;;;;;;15.63;70.74;98218.99;1742935;81;21025;-60
2022/09/18 12:07:10;;;;;;;0.70;0.20;;;;;;;15.15;69.92;98231.66;1733206;81;21101;-61
2022/09/18 12:10:03;;;;;;;1.02;0.30;;;;;;;14.80;70.68;98240.07;1729495;80;21463;-61
2022/09/18 12:13:02;;;;;;;1.82;0.50;;;;;;;14.48;71.18;98240.58;1735075;80;21965;-62
2022/09/18 12:15:36;;;;;;;1.15;0.60;;;;;;;13.79;71.57;98249.57;1689724;83;21813;-61
2022/09/18 12:18:11;;;;;;;0.30;0.20;;;;;;;13.24;72.22;98256.72;1766058;79;21065;-61
2022/09/18 12:20:43;;;;;;;1.87;0.50;;;;;;;12.97;72.85;98258.01;1771068;79;20957;-61
2022/09/18 12:23:19;;;;;;;2.35;1.00;;;;;;;12.74;73.18;98263.30;1768766;79;20997;-61
2022/09/18 12:26:12;;;;;;;0.75;0.30;;;;;;;12.61;73.38;98277.48;1765392;79;21076;-62
2022/09/18 12:29:16;;;;;;;3.90;0.35;;;;;;;12.53;73.56;98285.92;1782048;79;21175;-61
2022/09/18 12:32:05;;;;;;;1.60;0.40;;;;;;;12.41;73.95;98286.89;1739439;80;20954;-60
2022/09/18 12:35:19;;;;;;;2.75;0.62;;;;;;;12.30;74.03;98285.92;1709674;82;21062;-60
2022/09/18 12:38:14;;;;;;;1.00;0.53;;;;;;;12.23;74.30;98284.72;1738890;80;21165;-60
2022/09/18 12:41:01;;;;;;;0.82;0.50;;;;;;;12.18;74.57;98279.00;1743607;80;21458;-61
2022/09/18 12:43:42;;;;;;;1.20;0.60;;;;;;;12.12;74.50;98280.78;1741181;80;21028;-61
2022/09/18 12:46:35;;;;;;;1.00;0.62;;;;;;;12.06;74.91;98279.95;1719893;80;21134;-61
2022/09/18 12:49:22;;;;;;;2.52;0.90;;;;;;;12.07;75.15;98280.30;1741591;80;21004;-60
2022/09/18 12:52:19;;;;;;;1.57;0.78;;;;;;;12.06;75.38;98285.19;1741357;80;21068;-61
2022/09/18 12:55:09;;;;;;;1.82;0.85;;;;;;;12.09;75.53;98287.56;1741030;80;21114;-62
2022/09/18 12:57:44;;;;;;;0.95;0.53;;;;;;;12.06;75.70;98289.94;1740928;80;21083;-61
2022/09/18 13:00:16;;;;;;;1.15;0.60;;;;;;;12.09;76.04;98298.03;1742060;80;20994;-61
2022/09/18 13:03:09;;;;;;;2.90;0.90;;;;;;;12.16;76.31;98295.31;1741122;80;21046;-61
2022/09/18 13:05:44;;;;;;;3.20;0.60;;;;;;;12.20;76.37;98298.04;1726874;80;21034;-60
2022/09/18 13:08:20;;;;;;;1.67;0.70;;;;;;;12.08;76.38;98280.67;1743350;80;21902;-61
2022/09/18 13:10:50;;;;;;;3.27;1.65;;;;;;;12.15;76.43;98292.32;1741915;80;21629;-61
2022/09/18 13:13:28;;;;;;;5.78;3.60;;;;;;;12.23;76.65;98294.36;1742694;80;20946;-61
2022/09/18 13:16:18;;;;;;;9.10;4.72;;;;;;;12.18;76.87;98294.70;1743100;80;20988;-61
2022/09/18 13:19:04;;;;;;;6.50;4.00;;;;;;;12.26;77.08;98296.73;1747234;80;21563;-61
2022/09/18 13:21:40;;;;;;;10.20;4.65;;;;;;;12.33;77.16;98291.88;1713234;82;21205;-62
2022/09/18 13:24:12;;;;;;;13.95;7.47;;;;;;;12.40;77.33;98296.50;1733657;81;21835;-61
2022/09/18 13:26:41;;;;;;;12.10;4.10;;;;;;;12.47;77.51;98296.88;1732633;81;21150;-61
2022/09/18 13:29:47;;;;;;;7.67;2.35;;;;;;;12.51;77.58;98300.91;1724061;82;21607;-61
2022/09/18 13:32:18;;;;;;;;;;;;;;;12.50;77.65;98295.33;1743886;80;21110;-61
2022/09/18 13:34:52;;;;;;;6.08;3.05;;;;;;;12.43;77.92;98298.05;1738868;80;21318;-62
2022/09/18 13:37:22;;;;;;;5.90;2.62;;;;;;;12.46;77.87;98305.66;1720786;80;22289;-62
2022/09/18 13:40:00;;;;;;;4.42;2.12;;;;;;;12.50;78.07;98301.87;1740648;80;21128;-62
2022/09/18 13:42:35;;;;;;;2.42;1.30;;;;;;;12.59;78.11;98302.94;1740149;80;21088;-62
2022/09/18 13:45:22;;;;;;;1.37;0.85;;;;;;;12.57;78.33;98297.81;1743115;80;21068;-61
2022/09/18 13:48:07;;;;;;;;;;;;;;;12.60;78.31;98302.80;1744696;80;21386;-61
2022/09/18 13:50:36;;;;;;;1.20;0.70;;;;;;;12.60;78.51;98297.56;1737067;80;20143;-61
2022/09/18 13:53:04;;;;;;;1.52;0.90;;;;;;;12.56;78.67;98298.77;1739865;80;21060;-62
2022/09/18 13:55:48;;;;;;;2.22;0.80;;;;;;;12.57;78.81;98303.05;1715814;80;21002;-62
2022/09/18 13:58:48;;;;;;;3.42;1.00;;;;;;;12.58;78.74;98302.11;1741281;80;21645;-62
2022/09/18 14:01:43;;;;;;;1.87;0.80;;;;;;;12.55;78.82;98304.97;1741502;80;21634;-61
2022/09/18 14:04:43;;;;;;;3.55;1.00;;;;;;;12.55;79.02;98302.35;1740388;80;21062;-61
2022/09/18 14:07:28;;;;;;;2.40;1.15;;;;;;;12.57;79.12;98303.05;1719924;80;21375;-61
2022/09/18 14:11:23;;;;;;;2.47;1.70;;;;;;;12.58;79.16;98296.88;1839207;76;22230;-61
2022/09/18 14:13:54;;;;;;;1.75;0.95;;;;;;;12.45;79.33;98298.77;1794830;78;21063;-60
2022/09/18 14:16:29;;;;;;;1.72;1.02;;;;;;;12.40;79.23;98298.30;1814643;78;21062;-62
2022/09/18 14:19:00;;;;;;;0.82;0.40;;;;;;;12.35;79.42;98292.58;1821360;78;21601;-61
2022/09/18 14:21:31;;;;;;;2.25;0.70;;;;;;;12.37;79.57;98294.13;1820603;78;20974;-62
2022/09/18 14:24:07;;;;;;;1.65;0.95;;;;;;;12.41;79.48;98294.27;1827808;78;21085;-61
2022/09/18 14:26:46;;;;;;;1.25;0.80;;;;;;;12.42;79.50;98288.55;1795592;79;20941;-60
2022/09/18 14:29:18;;;;;;;2.65;0.50;;;;;;;12.39;79.49;98288.78;1761516;79;21290;-61
2022/09/18 14:31:49;;;;;;;3.65;1.10;;;;;;;12.39;79.73;98294.02;1763707;79;21056;-61
2022/09/18 14:34:41;;;;;;;1.92;1.20;;;;;;;12.38;79.74;98297.57;1792958;79;20956;-61
2022/09/18 14:37:35;;;;;;;3.83;1.27;;;;;;;12.41;79.65;98289.51;1788994;79;21048;-61
2022/09/18 14:40:00;;;;;;;2.10;0.88;;;;;;;12.34;79.55;98294.84;1787341;79;21610;-62
2022/09/18 14:42:40;;;;;;;1.52;0.93;;;;;;;12.27;79.87;98286.64;1783995;79;21455;-61
2022/09/18 14:45:15;;;;;;;3.80;1.20;;;;;;;12.15;79.95;98292.32;1791923;79;21606;-62
2022/09/18 14:47:45;;;;;;;1.35;0.90;;;;;;;12.06;79.77;98298.27;1769846;79;21070;-63
2022/09/18 14:50:36;;;;;;;1.62;0.95;;;;;;;11.95;79.91;98295.63;1784887;79;21604;-61
2022/09/18 14:53:23;;;;;;;2.02;1.25;;;;;;;11.89;80.08;98293.48;1783869;79;20943;-61
2022/09/18 14:56:04;;;;;;;2.60;1.10;;;;;;;11.83;80.16;98298.19;1764361;79;22498;-61
2022/09/18 14:58:36;;;;;;;3.10;1.25;;;;;;;11.76;80.30;98302.22;1790141;79;20969;-61
2022/09/18 15:01:07;;;;;;;1.87;1.20;;;;;;;11.70;80.58;98311.81;1794060;79;21012;-61
2022/09/18 15:03:42;;;;;;;1.15;0.80;;;;;;;11.62;80.91;98315.46;1792500;79;21032;-62
2022/09/18 15:06:23;;;;;;;1.10;1.00;;;;;;;11.55;80.82;98318.19;1762674;80;21054;-62
2022/09/18 15:08:55;;;;;;;1.57;0.90;;;;;;;11.63;80.94;98308.83;1725524;78;21029;-59
2022/09/18 15:11:25;;;;;;;1.45;0.80;;;;;;;11.63;80.94;98308.83;1722899;83;21045;-59
2022/09/18 15:13:55;;;;;;;1.82;0.88;;;;;;;11.80;81.44;98309.36;1700702;84;20970;-59
2022/09/18 15:16:30;;;;;;;1.85;1.00;;;;;;;11.89;81.19;98314.41;1724520;82;21044;-59
2022/09/18 15:18:59;;;;;;;3.25;1.40;;;;;;;11.80;81.39;98302.34;1701038;84;21515;-61
2022/09/18 15:21:32;;;;;;;1.52;0.90;;;;;;;11.80;81.39;98302.34;1700870;84;21151;-61
2022/09/18 15:24:02;;;;;;;1.87;0.80;;;;;;;11.90;81.10;98323.91;1720615;83;21029;-60
2022/09/18 15:26:42;;;;;;;1.00;0.55;;;;;;;11.75;81.01;98324.07;1700699;82;21076;-61
2022/09/18 15:29:23;;;;;;;1.90;0.90;;;;;;;11.68;81.36;98322.88;1719769;81;21028;-61
2022/09/18 15:32:01;;;;;;;1.15;0.62;;;;;;;11.69;81.53;98320.61;1700671;84;21032;-61
2022/09/18 15:34:41;;;;;;;3.47;0.62;;;;;;;11.69;81.67;98311.94;1635877;85;21675;-60
2022/09/18 15:37:13;;;;;;;2.25;0.82;;;;;;;11.66;81.60;98322.15;1682006;84;21072;-60
2022/09/18 15:39:41;;;;;;;0.72;0.62;;;;;;;11.52;81.58;98313.19;1680943;84;21105;-64
2022/09/18 15:42:30;;;;;;;1.98;0.70;;;;;;;11.52;81.58;98313.19;1682148;84;21769;-61
2022/09/18 15:45:05;;;;;;;1.50;0.65;;;;;;;11.54;81.84;98328.27;1684024;84;22248;-61
2022/09/18 15:47:36;;;;;;;1.37;1.02;;;;;;;11.55;81.80;98329.95;1684139;84;21301;-60
2022/09/18 15:50:17;;;;;;;1.72;1.10;;;;;;;11.49;81.86;98329.09;1676301;84;20966;-61
2022/09/18 15:53:01;;;;;;;2.55;1.25;;;;;;;11.48;82.58;98336.08;1686718;84;21080;-62
2022/09/18 15:55:32;;;;;;;2.25;1.22;;;;;;;11.48;82.58;98336.08;1682875;84;21021;-60
2022/09/18 15:58:03;;;;;;;1.50;1.15;;;;;;;11.45;82.34;98328.94;1680653;84;20986;-62
2022/09/18 16:00:34;;;;;;;2.00;1.30;;;;;;;11.42;82.45;98325.59;1677721;84;21163;-61
2022/09/18 16:03:07;;;;;;;2.42;1.20;;;;;;;11.35;82.67;98316.55;1672443;84;21029;-61
2022/09/18 16:05:38;;;;;;;2.87;0.98;;;;;;;11.48;82.66;98339.17;1676261;84;21102;-62
2022/09/18 16:08:09;;;;;;;1.10;0.80;;;;;;;11.49;82.59;98338.25;1640377;85;22249;-61
2022/09/18 16:10:42;;;;;;;1.87;1.00;;;;;;;11.47;82.53;98333.59;1635006;86;21075;-61
2022/09/18 16:13:20;;;;;;;2.70;0.90;;;;;;;11.42;82.62;98341.28;1635657;86;21133;-61
2022/09/18 16:16:11;;;;;;;4.58;1.70;;;;;;;11.40;82.80;98343.19;1636099;86;21131;-61
2022/09/18 16:18:56;;;;;;;2.55;1.60;;;;;;;11.40;82.80;98340.58;1636200;86;20996;-62
2022/09/18 16:21:29;;;;;;;2.52;1.50;;;;;;;11.37;82.85;98356.48;1613654;86;21071;-61
2022/09/18 16:24:00;;;;;;;2.75;1.72;;;;;;;11.28;83.04;98354.52;1636245;86;21676;-61
2022/09/18 16:26:31;;;;;;;2.40;1.60;;;;;;;11.26;83.20;98356.42;1635990;86;21107;-62
2022/09/18 16:29:03;;;;;;;3.55;1.72;;;;;;;11.27;83.25;98363.31;1634772;86;21779;-61
2022/09/18 16:31:36;;;;;;;2.77;1.32;;;;;;;11.19;83.11;98364.33;1694177;83;20994;-61
2022/09/18 16:34:19;;;;;;;1.98;1.27;;;;;;;11.11;83.21;98366.17;1711740;83;21002;-61
2022/09/18 16:36:47;;;;;;;4.15;1.12;;;;;;;11.01;83.39;98364.31;1709172;83;21049;-61
2022/09/18 16:39:18;;;;;;;3.02;1.25;;;;;;;10.86;83.36;98363.14;1711634;83;21124;-61
2022/09/18 16:41:45;;;;;;;2.58;1.00;;;;;;;10.82;83.54;98363.01;1710332;83;21017;-61
2022/09/18 16:44:14;;;;;;;4.47;1.40;;;;;;;10.81;83.64;98363.97;1704571;82;21074;-62
2022/09/18 16:46:51;;;;;;;1.80;0.98;;;;;;;10.81;83.72;98361.35;1673579;84;21034;-61
2022/09/18 16:49:25;;;;;;;2.65;1.07;;;;;;;10.79;83.74;98350.17;1693726;83;20994;-62
2022/09/18 16:51:54;;;;;;;2.25;1.37;;;;;;;10.78;83.75;98358.92;1696884;83;21135;-61
2022/09/18 16:54:20;;;;;;;2.10;1.35;;;;;;;10.75;83.77;98357.84;1701249;82;21004;-61
2022/09/18 16:56:52;;;;;;;2.70;1.15;;;;;;;10.72;83.80;98356.27;1718536;82;21135;-61
2022/09/18 16:59:23;;;;;;;2.45;0.80;;;;;;;10.66;83.80;98350.66;1693753;84;21116;-61
2022/09/18 17:01:50;;;;;;;1.85;0.80;;;;;;;10.63;83.89;98347.78;1704308;83;20979;-61
2022/09/18 17:04:17;;;;;;;1.80;1.00;;;;;;;10.63;83.86;98352.17;1685273;83;22785;-61
2022/09/18 17:06:45;;;;;;;2.97;0.77;;;;;;;10.62;83.92;98355.27;1714120;81;20995;-61
2022/09/18 17:09:12;;;;;;;2.27;0.90;;;;;;;10.55;83.80;98355.78;1735053;80;21049;-61
2022/09/18 17:11:39;;;;;;;2.65;0.90;;;;;;;10.41;83.96;98358.03;1735973;81;21562;-61
2022/09/18 17:14:07;;;;;;;1.97;0.77;;;;;;;10.32;84.03;98356.88;1726912;82;21063;-61
2022/09/18 17:16:39;;;;;;;2.47;1.12;;;;;;;10.32;84.03;98356.88;1738114;81;21909;-61
2022/09/18 17:19:14;;;;;;;2.47;1.17;;;;;;;10.20;84.18;98360.30;1733085;80;21539;-60
2022/09/18 17:21:38;;;;;;;2.35;1.02;;;;;;;10.19;84.14;98361.22;1744986;80;21650;-60
2022/09/18 17:24:05;;;;;;;3.90;1.40;;;;;;;10.18;84.25;98359.56;1744943;80;21964;-61
2022/09/18 17:26:36;;;;;;;3.62;1.50;;;;;;;10.15;84.42;98357.99;1731186;81;20954;-61
2022/09/18 17:29:03;;;;;;;3.90;2.00;;;;;;;10.19;84.47;98357.31;1719036;83;21865;-61
2022/09/18 17:31:30;;;;;;;2.27;1.35;;;;;;;10.20;84.47;98352.48;1747598;81;21089;-61
2022/09/18 17:33:57;;;;;;;4.45;2.00;;;;;;;10.16;84.63;98354.91;1726212;81;21007;-61
2022/09/18 17:36:24;;;;;;;7.95;3.62;;;;;;;10.14;84.72;98353.73;1728028;81;21568;-62
2022/09/18 17:38:51;;;;;;;4.10;2.27;;;;;;;10.14;84.76;98355.47;1719939;82;21097;-61
2022/09/18 17:41:18;;;;;;;6.40;2.67;;;;;;;10.11;84.87;98351.77;1749147;80;21103;-61
2022/09/18 17:43:51;;;;;;;3.77;2.10;;;;;;;10.14;84.78;98352.86;1722714;83;21136;-61
2022/09/18 17:46:19;;;;;;;4.05;2.75;;;;;;;10.08;84.88;98348.45;1750565;81;21039;-60
2022/09/18 17:48:46;;;;;;;6.70;2.83;;;;;;;10.06;84.92;98356.02;1750930;80;21566;-62
2022/09/18 17:51:17;;;;;;;6.67;2.42;;;;;;;10.03;85.00;98354.44;1742248;80;21052;-62
2022/09/18 17:53:47;;;;;;;3.70;2.08;;;;;;;10.04;84.98;98361.31;1727511;81;21099;-61
2022/09/18 17:56:17;;;;;;;3.67;2.00;;;;;;;10.03;85.08;98362.73;1730712;81;21053;-61
2022/09/18 17:58:45;;;;;;;4.47;1.98;;;;;;;10.03;85.20;98362.27;1749659;81;21064;-61
2022/09/18 18:01:16;;;;;;;6.65;2.20;;;;;;;10.02;85.19;98364.96;1747762;81;21602;-62
2022/09/18 18:03:45;;;;;;;3.30;1.90;;;;;;;9.98;85.32;98368.25;1699108;83;21029;-61
2022/09/18 18:06:12;;;;;;;4.65;2.42;;;;;;;9.97;85.59;98374.86;1750318;81;21684;-61
2022/09/18 18:08:39;;;;;;;2.60;1.40;;;;;;;9.96;85.77;98371.42;1721037;81;21088;-61
2022/09/18 18:11:14;;;;;;;2.85;1.47;;;;;;;9.99;85.87;98379.03;1726590;81;20971;-61
2022/09/18 18:13:44;;;;;;;4.45;1.87;;;;;;;10.03;85.98;98383.13;1722345;81;21139;-62
2022/09/18 18:16:23;;;;;;;2.72;1.72;;;;;;;10.01;85.81;98390.20;1711274;83;21072;-61
2022/09/18 18:18:49;;;;;;;2.77;1.60;;;;;;;10.01;86.03;98379.78;1753794;80;21161;-61
2022/09/18 18:21:17;;;;;;;1.85;1.40;;;;;;;9.94;85.87;98390.27;1748028;80;21057;-61
2022/09/18 18:23:44;;;;;;;1.98;1.30;;;;;;;9.92;86.06;98383.00;1732413;81;21040;-61
2022/09/18 18:26:12;;;;;;;2.55;1.55;;;;;;;9.93;86.26;98384.66;1743821;80;21015;-61
2022/09/18 18:28:40;;;;;;;3.80;2.10;;;;;;;9.95;86.37;98389.78;1730096;81;20950;-61
2022/09/18 18:31:11;;;;;;;4.12;2.27;;;;;;;9.97;86.43;98388.75;1735107;81;22109;-61
2022/09/18 18:33:42;;;;;;;4.92;2.72;;;;;;;9.98;86.47;98389.58;1745954;80;21061;-62
2022/09/18 18:36:19;;;;;;;4.92;2.55;;;;;;;9.98;86.55;98387.80;1730347;81;21085;-60
2022/09/18 18:38:48;;;;;;;;;;;;;;;10.01;86.61;98392.81;1753848;81;21575;-61
2022/09/18 18:41:19;;;;;;;6.97;2.85;;;;;;;10.04;86.72;98390.00;1733533;81;20485;-62
2022/09/18 18:43:54;;;;;;;4.50;2.52;;;;;;;10.01;86.49;98394.12;1738415;80;21104;-61
2022/09/18 18:46:26;;;;;;;4.72;2.20;;;;;;;9.96;86.42;98394.05;1717745;82;21513;-61
2022/09/18 18:48:59;;;;;;;3.00;2.35;;;;;;;9.96;86.55;98392.28;1748758;81;22304;-61